sensor_id;sensor_type;location;lat;lon;timestamp;temperature;humidity
2913;DHT22;1466;48.778;9.166;2023-05-08T00:01:49;17.80;99.90
2913;DHT22;1466;48.778;9.166;2023-05-08T00:04:15;17.70;99.90
2913;DHT22;1466;48.778;9.166;2023-05-08T00:06:41;17.70;99.90
2913;DHT22;1466;48.778;9.166;2023-05-08T00:09:07;17.70;99.90
2913;DHT22;1466;48.778;9.166;2023-05-08T00:11:33;17.70;99.90
2913;DHT22;1466;48.778;9.166;2023-05-08T00:13:58;17.70;99.90
2913;DHT22;1466;48.778;9.166;2023-05-08T00:16:24;17.70;99.90
2913;DHT22;1466;48.778;9.166;2023-05-08T00:18:49;17.70;99.90
2913;DHT22;1466;48.778;9.166;2023-05-08T00:21:15;17.70;99.90
2913;DHT22;1466;48.778;9.166;2023-05-08T00:23:41;17.70;99.90
2913;DHT22;1466;48.778;9.166;2023-05-08T00:26:06;17.70;99.90
2913;DHT22;1466;48.778;9.166;2023-05-08T00:28:32;17.70;99.90
2913;DHT22;1466;48.778;9.166;2023-05-08T00:31:00;17.70;99.90
2913;DHT22;1466;48.778;9.166;2023-05-08T00:33:26;17.70;99.90
2913;DHT22;1466;48.778;9.166;2023-05-08T00:35:58;17.60;99.90
2913;DHT22;1466;48.778;9.166;2023-05-08T00:38:24;17.60;99.90
2913;DHT22;1466;48.778;9.166;2023-05-08T00:40:49;17.50;99.90
2913;DHT22;1466;48.778;9.166;2023-05-08T00:43:15;17.50;99.90
2913;DHT22;1466;48.778;9.166;2023-05-08T00:45:41;17.40;99.90
2913;DHT22;1466;48.778;9.166;2023-05-08T00:48:07;17.40;99.90
2913;DHT22;1466;48.778;9.166;2023-05-08T00:50:32;17.30;99.90
2913;DHT22;1466;48.778;9.166;2023-05-08T00:52:59;17.30;99.90
2913;DHT22;1466;48.778;9.166;2023-05-08T00:55:28;17.40;99.90
2913;DHT22;1466;48.778;9.166;2023-05-08T00:57:53;17.40;99.90
2913;DHT22;1466;48.778;9.166;2023-05-08T01:00:19;17.40;99.90
2913;DHT22;1466;48.778;9.166;2023-05-08T01:02:46;17.40;99.90
2913;DHT22;1466;48.778;9.166;2023-05-08T01:05:12;17.50;99.90
2913;DHT22;1466;48.778;9.166;2023-05-08T01:07:37;17.40;99.90
2913;DHT22;1466;48.778;9.166;2023-05-08T01:10:04;17.40;99.90
2913;DHT22;1466;48.778;9.166;2023-05-08T01:22:58;17.30;99.90
2913;DHT22;1466;48.778;9.166;2023-05-08T01:36:39;17.50;99.90
2913;DHT22;1466;48.778;9.166;2023-05-08T01:42:03;17.50;99.90
2913;DHT22;1466;48.778;9.166;2023-05-08T01:44:37;17.60;99.90
2913;DHT22;1466;48.778;9.166;2023-05-08T01:47:08;17.70;99.90
2913;DHT22;1466;48.778;9.166;2023-05-08T01:49:43;17.70;99.90
2913;DHT22;1466;48.778;9.166;2023-05-08T01:52:13;17.70;99.90
2913;DHT22;1466;48.778;9.166;2023-05-08T01:54:49;17.70;99.90
2913;DHT22;1466;48.778;9.166;2023-05-08T01:57:18;17.70;99.90
2913;DHT22;1466;48.778;9.166;2023-05-08T01:59:44;17.80;99.90
2913;DHT22;1466;48.778;9.166;2023-05-08T02:02:11;17.70;99.90
2913;DHT22;1466;48.778;9.166;2023-05-08T02:04:38;17.70;99.90
2913;DHT22;1466;48.778;9.166;2023-05-08T02:07:05;17.60;99.90
2913;DHT22;1466;48.778;9.166;2023-05-08T02:09:32;17.60;99.90
2913;DHT22;1466;48.778;9.166;2023-05-08T02:11:59;17.60;99.90
2913;DHT22;1466;48.778;9.166;2023-05-08T02:14:27;17.60;99.90
2913;DHT22;1466;48.778;9.166;2023-05-08T02:16:54;17.60;99.90
2913;DHT22;1466;48.778;9.166;2023-05-08T02:19:22;17.50;99.90
2913;DHT22;1466;48.778;9.166;2023-05-08T02:21:50;17.50;99.90
2913;DHT22;1466;48.778;9.166;2023-05-08T02:24:16;17.40;99.90
2913;DHT22;1466;48.778;9.166;2023-05-08T02:26:44;17.40;99.90
2913;DHT22;1466;48.778;9.166;2023-05-08T02:29:10;17.40;99.90
2913;DHT22;1466;48.778;9.166;2023-05-08T02:31:37;17.40;99.90
2913;DHT22;1466;48.778;9.166;2023-05-08T02:34:04;17.50;99.90
2913;DHT22;1466;48.778;9.166;2023-05-08T02:36:31;17.50;99.90
2913;DHT22;1466;48.778;9.166;2023-05-08T02:38:59;17.60;99.90
2913;DHT22;1466;48.778;9.166;2023-05-08T02:41:31;17.60;99.90
2913;DHT22;1466;48.778;9.166;2023-05-08T02:43:57;17.60;99.90
2913;DHT22;1466;48.778;9.166;2023-05-08T02:46:43;17.50;99.90
2913;DHT22;1466;48.778;9.166;2023-05-08T02:49:24;17.40;99.90
2913;DHT22;1466;48.778;9.166;2023-05-08T02:55:06;17.40;99.90
2913;DHT22;1466;48.778;9.166;2023-05-08T02:57:56;17.40;99.90
2913;DHT22;1466;48.778;9.166;2023-05-08T03:00:32;17.50;99.90
2913;DHT22;1466;48.778;9.166;2023-05-08T03:05:58;17.50;99.90
2913;DHT22;1466;48.778;9.166;2023-05-08T03:08:30;17.40;99.90
2913;DHT22;1466;48.778;9.166;2023-05-08T03:11:00;17.30;99.90
2913;DHT22;1466;48.778;9.166;2023-05-08T03:13:29;17.20;99.90
2913;DHT22;1466;48.778;9.166;2023-05-08T03:16:03;17.10;99.90
2913;DHT22;1466;48.778;9.166;2023-05-08T03:18:35;17.10;99.90
2913;DHT22;1466;48.778;9.166;2023-05-08T03:21:04;17.10;99.90
2913;DHT22;1466;48.778;9.166;2023-05-08T03:23:33;17.10;99.90
2913;DHT22;1466;48.778;9.166;2023-05-08T03:26:00;17.10;99.90
2913;DHT22;1466;48.778;9.166;2023-05-08T03:28:28;17.00;99.90
2913;DHT22;1466;48.778;9.166;2023-05-08T03:30:56;17.10;99.90
2913;DHT22;1466;48.778;9.166;2023-05-08T03:33:23;17.10;99.90
2913;DHT22;1466;48.778;9.166;2023-05-08T03:35:49;17.00;99.90
2913;DHT22;1466;48.778;9.166;2023-05-08T03:38:15;17.00;99.90
2913;DHT22;1466;48.778;9.166;2023-05-08T03:40:41;17.00;99.90
2913;DHT22;1466;48.778;9.166;2023-05-08T03:43:08;17.00;99.90
2913;DHT22;1466;48.778;9.166;2023-05-08T03:45:34;17.00;99.90
2913;DHT22;1466;48.778;9.166;2023-05-08T03:48:03;17.00;99.90
2913;DHT22;1466;48.778;9.166;2023-05-08T03:50:30;17.10;99.90
2913;DHT22;1466;48.778;9.166;2023-05-08T03:52:57;17.10;99.90
2913;DHT22;1466;48.778;9.166;2023-05-08T03:55:23;17.10;99.90
2913;DHT22;1466;48.778;9.166;2023-05-08T04:03:21;17.00;99.90
2913;DHT22;1466;48.778;9.166;2023-05-08T04:06:33;16.90;99.90
2913;DHT22;1466;48.778;9.166;2023-05-08T04:09:18;16.90;99.90
2913;DHT22;1466;48.778;9.166;2023-05-08T04:12:01;16.90;99.90
2913;DHT22;1466;48.778;9.166;2023-05-08T04:14:30;17.00;99.90
2913;DHT22;1466;48.778;9.166;2023-05-08T04:17:01;17.10;99.90
2913;DHT22;1466;48.778;9.166;2023-05-08T04:19:32;17.10;99.90
2913;DHT22;1466;48.778;9.166;2023-05-08T04:22:05;17.20;99.90
2913;DHT22;1466;48.778;9.166;2023-05-08T04:24:32;17.20;99.90
2913;DHT22;1466;48.778;9.166;2023-05-08T04:26:59;17.20;99.90
2913;DHT22;1466;48.778;9.166;2023-05-08T04:29:25;17.20;99.90
2913;DHT22;1466;48.778;9.166;2023-05-08T04:31:52;17.20;99.90
2913;DHT22;1466;48.778;9.166;2023-05-08T04:34:18;17.20;99.90
2913;DHT22;1466;48.778;9.166;2023-05-08T04:36:43;17.20;99.90
2913;DHT22;1466;48.778;9.166;2023-05-08T04:39:09;17.30;99.90
2913;DHT22;1466;48.778;9.166;2023-05-08T04:41:35;17.30;99.90
2913;DHT22;1466;48.778;9.166;2023-05-08T04:44:02;17.30;99.90
2913;DHT22;1466;48.778;9.166;2023-05-08T04:46:28;17.30;99.90
2913;DHT22;1466;48.778;9.166;2023-05-08T04:48:53;17.30;99.90
2913;DHT22;1466;48.778;9.166;2023-05-08T04:51:19;17.30;99.90
2913;DHT22;1466;48.778;9.166;2023-05-08T04:53:45;17.20;99.90
2913;DHT22;1466;48.778;9.166;2023-05-08T04:56:10;17.20;99.90
2913;DHT22;1466;48.778;9.166;2023-05-08T04:58:36;17.20;99.90
2913;DHT22;1466;48.778;9.166;2023-05-08T05:01:02;17.30;99.90
2913;DHT22;1466;48.778;9.166;2023-05-08T05:03:28;17.30;99.90
2913;DHT22;1466;48.778;9.166;2023-05-08T05:05:58;17.30;99.90
2913;DHT22;1466;48.778;9.166;2023-05-08T05:08:24;17.30;99.90
2913;DHT22;1466;48.778;9.166;2023-05-08T05:10:49;17.30;99.90
2913;DHT22;1466;48.778;9.166;2023-05-08T05:13:15;17.30;99.90
2913;DHT22;1466;48.778;9.166;2023-05-08T05:15:41;17.30;99.90
2913;DHT22;1466;48.778;9.166;2023-05-08T05:18:07;17.30;99.90
2913;DHT22;1466;48.778;9.166;2023-05-08T05:20:33;17.30;99.90
2913;DHT22;1466;48.778;9.166;2023-05-08T05:22:58;17.30;99.90
2913;DHT22;1466;48.778;9.166;2023-05-08T05:25:24;17.30;99.90
2913;DHT22;1466;48.778;9.166;2023-05-08T05:27:50;17.40;99.90
2913;DHT22;1466;48.778;9.166;2023-05-08T05:30:15;17.40;99.90
2913;DHT22;1466;48.778;9.166;2023-05-08T05:32:41;17.30;99.90
2913;DHT22;1466;48.778;9.166;2023-05-08T05:35:08;17.40;99.90
2913;DHT22;1466;48.778;9.166;2023-05-08T05:37:33;17.30;99.90
2913;DHT22;1466;48.778;9.166;2023-05-08T05:40:00;17.30;99.90
2913;DHT22;1466;48.778;9.166;2023-05-08T05:42:25;17.30;99.90
2913;DHT22;1466;48.778;9.166;2023-05-08T05:44:51;17.30;99.90
2913;DHT22;1466;48.778;9.166;2023-05-08T05:47:16;17.40;99.90
2913;DHT22;1466;48.778;9.166;2023-05-08T05:49:42;17.40;99.90
2913;DHT22;1466;48.778;9.166;2023-05-08T05:52:11;17.40;99.90
2913;DHT22;1466;48.778;9.166;2023-05-08T05:54:37;17.30;99.90
2913;DHT22;1466;48.778;9.166;2023-05-08T05:57:03;17.20;99.90
2913;DHT22;1466;48.778;9.166;2023-05-08T05:59:29;17.30;99.90
2913;DHT22;1466;48.778;9.166;2023-05-08T06:01:54;17.20;99.90
2913;DHT22;1466;48.778;9.166;2023-05-08T06:04:20;17.30;99.90
2913;DHT22;1466;48.778;9.166;2023-05-08T06:06:45;17.30;99.90
2913;DHT22;1466;48.778;9.166;2023-05-08T06:09:11;17.30;99.90
2913;DHT22;1466;48.778;9.166;2023-05-08T06:11:37;17.40;99.90
2913;DHT22;1466;48.778;9.166;2023-05-08T06:14:02;17.40;99.90
2913;DHT22;1466;48.778;9.166;2023-05-08T06:16:28;17.40;99.90
2913;DHT22;1466;48.778;9.166;2023-05-08T06:18:55;17.40;99.90
2913;DHT22;1466;48.778;9.166;2023-05-08T06:21:20;17.40;99.90
2913;DHT22;1466;48.778;9.166;2023-05-08T06:23:46;17.40;99.90
2913;DHT22;1466;48.778;9.166;2023-05-08T06:26:11;17.40;99.90
2913;DHT22;1466;48.778;9.166;2023-05-08T06:28:37;17.40;99.90
2913;DHT22;1466;48.778;9.166;2023-05-08T06:31:03;17.40;99.90
2913;DHT22;1466;48.778;9.166;2023-05-08T06:33:28;17.40;99.90
2913;DHT22;1466;48.778;9.166;2023-05-08T06:35:54;17.40;99.90
2913;DHT22;1466;48.778;9.166;2023-05-08T06:38:20;17.40;99.90
2913;DHT22;1466;48.778;9.166;2023-05-08T06:40:46;17.50;99.90
2913;DHT22;1466;48.778;9.166;2023-05-08T06:43:12;17.50;99.90
2913;DHT22;1466;48.778;9.166;2023-05-08T06:45:38;17.40;99.90
2913;DHT22;1466;48.778;9.166;2023-05-08T06:48:05;17.40;99.90
2913;DHT22;1466;48.778;9.166;2023-05-08T06:50:30;17.40;99.90
2913;DHT22;1466;48.778;9.166;2023-05-08T06:52:56;17.50;99.90
2913;DHT22;1466;48.778;9.166;2023-05-08T06:55:22;17.50;99.90
2913;DHT22;1466;48.778;9.166;2023-05-08T06:57:47;17.50;99.90
2913;DHT22;1466;48.778;9.166;2023-05-08T07:00:13;17.50;99.90
2913;DHT22;1466;48.778;9.166;2023-05-08T07:02:39;17.60;99.90
2913;DHT22;1466;48.778;9.166;2023-05-08T07:05:05;17.60;99.90
2913;DHT22;1466;48.778;9.166;2023-05-08T07:07:31;17.60;99.90
2913;DHT22;1466;48.778;9.166;2023-05-08T07:09:56;17.50;99.90
2913;DHT22;1466;48.778;9.166;2023-05-08T07:12:22;17.40;99.90
2913;DHT22;1466;48.778;9.166;2023-05-08T07:14:48;17.40;99.90
2913;DHT22;1466;48.778;9.166;2023-05-08T07:17:13;17.30;99.90
2913;DHT22;1466;48.778;9.166;2023-05-08T07:19:39;17.20;99.90
2913;DHT22;1466;48.778;9.166;2023-05-08T07:22:05;17.20;99.90
2913;DHT22;1466;48.778;9.166;2023-05-08T07:24:31;17.20;99.90
2913;DHT22;1466;48.778;9.166;2023-05-08T07:26:57;17.30;99.90
2913;DHT22;1466;48.778;9.166;2023-05-08T07:29:24;17.40;99.90
2913;DHT22;1466;48.778;9.166;2023-05-08T07:31:50;17.50;99.90
2913;DHT22;1466;48.778;9.166;2023-05-08T07:34:16;17.50;99.90
2913;DHT22;1466;48.778;9.166;2023-05-08T07:36:42;17.60;99.90
2913;DHT22;1466;48.778;9.166;2023-05-08T07:39:08;17.60;99.90
2913;DHT22;1466;48.778;9.166;2023-05-08T07:41:33;17.60;99.90
2913;DHT22;1466;48.778;9.166;2023-05-08T07:44:01;17.50;99.90
2913;DHT22;1466;48.778;9.166;2023-05-08T07:46:27;17.60;99.90
2913;DHT22;1466;48.778;9.166;2023-05-08T07:48:53;17.60;99.90
2913;DHT22;1466;48.778;9.166;2023-05-08T07:51:18;17.60;99.90
2913;DHT22;1466;48.778;9.166;2023-05-08T07:53:44;17.70;99.90
2913;DHT22;1466;48.778;9.166;2023-05-08T07:56:10;17.80;99.90
2913;DHT22;1466;48.778;9.166;2023-05-08T07:58:35;17.90;99.90
2913;DHT22;1466;48.778;9.166;2023-05-08T08:01:01;18.00;99.90
2913;DHT22;1466;48.778;9.166;2023-05-08T08:03:27;18.00;99.90
2913;DHT22;1466;48.778;9.166;2023-05-08T08:05:53;18.10;99.90
2913;DHT22;1466;48.778;9.166;2023-05-08T08:08:19;18.20;99.90
2913;DHT22;1466;48.778;9.166;2023-05-08T08:10:45;18.30;99.90
2913;DHT22;1466;48.778;9.166;2023-05-08T08:13:11;18.40;99.90
2913;DHT22;1466;48.778;9.166;2023-05-08T08:15:37;18.40;99.90
2913;DHT22;1466;48.778;9.166;2023-05-08T08:18:02;18.50;99.90
2913;DHT22;1466;48.778;9.166;2023-05-08T08:20:28;18.40;99.90
2913;DHT22;1466;48.778;9.166;2023-05-08T08:22:53;18.40;99.90
2913;DHT22;1466;48.778;9.166;2023-05-08T08:25:19;18.50;99.90
2913;DHT22;1466;48.778;9.166;2023-05-08T08:27:45;18.60;99.90
2913;DHT22;1466;48.778;9.166;2023-05-08T08:30:10;18.50;99.90
2913;DHT22;1466;48.778;9.166;2023-05-08T08:32:36;18.50;99.90
2913;DHT22;1466;48.778;9.166;2023-05-08T08:35:02;18.40;99.90
2913;DHT22;1466;48.778;9.166;2023-05-08T08:37:28;18.30;99.90
2913;DHT22;1466;48.778;9.166;2023-05-08T08:39:53;18.20;99.90
2913;DHT22;1466;48.778;9.166;2023-05-08T08:42:19;18.10;99.90
2913;DHT22;1466;48.778;9.166;2023-05-08T08:44:44;18.10;99.90
2913;DHT22;1466;48.778;9.166;2023-05-08T08:47:10;18.00;99.90
2913;DHT22;1466;48.778;9.166;2023-05-08T08:49:47;18.00;99.90
2913;DHT22;1466;48.778;9.166;2023-05-08T08:54:48;18.10;99.90
2913;DHT22;1466;48.778;9.166;2023-05-08T08:57:15;18.30;99.90
2913;DHT22;1466;48.778;9.166;2023-05-08T08:59:41;18.30;99.90
2913;DHT22;1466;48.778;9.166;2023-05-08T09:02:11;18.40;99.90
2913;DHT22;1466;48.778;9.166;2023-05-08T09:04:39;18.40;99.90
2913;DHT22;1466;48.778;9.166;2023-05-08T09:07:04;18.30;99.90
2913;DHT22;1466;48.778;9.166;2023-05-08T09:09:34;18.30;99.90
2913;DHT22;1466;48.778;9.166;2023-05-08T09:12:02;18.30;99.90
2913;DHT22;1466;48.778;9.166;2023-05-08T09:14:28;18.30;99.90
2913;DHT22;1466;48.778;9.166;2023-05-08T09:16:54;18.40;99.90
2913;DHT22;1466;48.778;9.166;2023-05-08T09:19:20;18.40;99.90
2913;DHT22;1466;48.778;9.166;2023-05-08T09:21:46;18.40;99.90
2913;DHT22;1466;48.778;9.166;2023-05-08T09:24:12;18.40;99.90
2913;DHT22;1466;48.778;9.166;2023-05-08T09:26:39;18.50;99.90
2913;DHT22;1466;48.778;9.166;2023-05-08T09:29:19;18.50;99.90
2913;DHT22;1466;48.778;9.166;2023-05-08T09:31:51;18.50;99.90
2913;DHT22;1466;48.778;9.166;2023-05-08T09:34:30;18.60;99.90
2913;DHT22;1466;48.778;9.166;2023-05-08T09:39:32;18.80;99.90
2913;DHT22;1466;48.778;9.166;2023-05-08T09:41:58;18.90;99.90
2913;DHT22;1466;48.778;9.166;2023-05-08T09:44:24;19.00;99.90
2913;DHT22;1466;48.778;9.166;2023-05-08T09:46:50;19.10;99.90
2913;DHT22;1466;48.778;9.166;2023-05-08T09:49:16;19.20;99.90
2913;DHT22;1466;48.778;9.166;2023-05-08T09:51:51;19.30;99.90
2913;DHT22;1466;48.778;9.166;2023-05-08T09:54:19;19.50;99.90
2913;DHT22;1466;48.778;9.166;2023-05-08T09:56:45;19.60;99.90
2913;DHT22;1466;48.778;9.166;2023-05-08T09:59:27;19.70;99.90
2913;DHT22;1466;48.778;9.166;2023-05-08T10:01:54;19.70;99.90
2913;DHT22;1466;48.778;9.166;2023-05-08T10:04:36;19.70;99.90
2913;DHT22;1466;48.778;9.166;2023-05-08T10:07:02;19.60;99.90
2913;DHT22;1466;48.778;9.166;2023-05-08T10:09:28;19.60;99.90
2913;DHT22;1466;48.778;9.166;2023-05-08T10:11:54;19.50;99.90
2913;DHT22;1466;48.778;9.166;2023-05-08T10:14:21;19.50;99.90
2913;DHT22;1466;48.778;9.166;2023-05-08T10:16:48;19.50;99.90
2913;DHT22;1466;48.778;9.166;2023-05-08T10:19:16;19.50;99.90
2913;DHT22;1466;48.778;9.166;2023-05-08T10:21:46;19.50;99.90
2913;DHT22;1466;48.778;9.166;2023-05-08T10:24:16;19.60;99.90
2913;DHT22;1466;48.778;9.166;2023-05-08T10:27:07;19.60;99.90
2913;DHT22;1466;48.778;9.166;2023-05-08T10:29:41;19.60;99.90
2913;DHT22;1466;48.778;9.166;2023-05-08T10:32:09;19.70;99.90
2913;DHT22;1466;48.778;9.166;2023-05-08T10:34:39;19.70;99.90
2913;DHT22;1466;48.778;9.166;2023-05-08T10:37:07;19.80;99.90
2913;DHT22;1466;48.778;9.166;2023-05-08T10:39:34;19.90;99.90
2913;DHT22;1466;48.778;9.166;2023-05-08T10:42:00;19.90;99.90
2913;DHT22;1466;48.778;9.166;2023-05-08T10:44:26;19.80;99.90
2913;DHT22;1466;48.778;9.166;2023-05-08T10:47:04;19.80;99.90
2913;DHT22;1466;48.778;9.166;2023-05-08T10:49:54;19.80;99.90
2913;DHT22;1466;48.778;9.166;2023-05-08T10:52:27;19.70;99.90
2913;DHT22;1466;48.778;9.166;2023-05-08T10:57:23;19.60;99.90
2913;DHT22;1466;48.778;9.166;2023-05-08T10:59:49;19.60;99.90
2913;DHT22;1466;48.778;9.166;2023-05-08T11:02:14;19.60;99.90
2913;DHT22;1466;48.778;9.166;2023-05-08T11:04:41;19.70;99.90
2913;DHT22;1466;48.778;9.166;2023-05-08T11:07:06;19.70;99.90
2913;DHT22;1466;48.778;9.166;2023-05-08T11:14:54;20.10;99.90
2913;DHT22;1466;48.778;9.166;2023-05-08T11:17:23;20.30;99.90
2913;DHT22;1466;48.778;9.166;2023-05-08T11:20:01;20.50;99.90
2913;DHT22;1466;48.778;9.166;2023-05-08T11:22:31;20.70;99.90
2913;DHT22;1466;48.778;9.166;2023-05-08T11:25:01;20.80;99.90
2913;DHT22;1466;48.778;9.166;2023-05-08T11:38:19;21.20;99.90
2913;DHT22;1466;48.778;9.166;2023-05-08T11:43:49;21.40;99.90
2913;DHT22;1466;48.778;9.166;2023-05-08T11:46:20;21.50;99.90
2913;DHT22;1466;48.778;9.166;2023-05-08T11:48:46;21.40;99.90
2913;DHT22;1466;48.778;9.166;2023-05-08T11:51:15;21.40;99.90
2913;DHT22;1466;48.778;9.166;2023-05-08T11:53:43;21.40;99.90
2913;DHT22;1466;48.778;9.166;2023-05-08T11:56:08;21.40;99.90
2913;DHT22;1466;48.778;9.166;2023-05-08T11:58:34;21.20;99.90
2913;DHT22;1466;48.778;9.166;2023-05-08T12:01:01;21.10;99.90
2913;DHT22;1466;48.778;9.166;2023-05-08T12:03:26;21.00;99.90
2913;DHT22;1466;48.778;9.166;2023-05-08T12:05:56;21.00;99.90
2913;DHT22;1466;48.778;9.166;2023-05-08T12:08:22;21.10;99.90
2913;DHT22;1466;48.778;9.166;2023-05-08T12:10:53;21.10;99.90
2913;DHT22;1466;48.778;9.166;2023-05-08T12:13:28;21.10;99.90
2913;DHT22;1466;48.778;9.166;2023-05-08T12:15:59;21.20;99.90
2913;DHT22;1466;48.778;9.166;2023-05-08T12:18:26;21.10;99.90
2913;DHT22;1466;48.778;9.166;2023-05-08T12:20:54;21.10;99.90
2913;DHT22;1466;48.778;9.166;2023-05-08T12:23:21;21.10;99.90
2913;DHT22;1466;48.778;9.166;2023-05-08T12:25:49;21.20;99.90
2913;DHT22;1466;48.778;9.166;2023-05-08T12:28:15;21.30;99.90
2913;DHT22;1466;48.778;9.166;2023-05-08T12:30:41;21.40;99.90
2913;DHT22;1466;48.778;9.166;2023-05-08T12:33:07;21.60;99.90
2913;DHT22;1466;48.778;9.166;2023-05-08T12:35:33;21.80;99.90
2913;DHT22;1466;48.778;9.166;2023-05-08T12:38:04;22.00;99.90
2913;DHT22;1466;48.778;9.166;2023-05-08T12:40:34;22.00;99.90
2913;DHT22;1466;48.778;9.166;2023-05-08T12:43:02;21.90;99.90
2913;DHT22;1466;48.778;9.166;2023-05-08T12:45:30;21.90;99.90
2913;DHT22;1466;48.778;9.166;2023-05-08T12:48:00;21.90;99.90
2913;DHT22;1466;48.778;9.166;2023-05-08T12:50:26;21.90;99.90
2913;DHT22;1466;48.778;9.166;2023-05-08T12:52:52;21.70;99.90
2913;DHT22;1466;48.778;9.166;2023-05-08T12:55:23;21.70;99.90
2913;DHT22;1466;48.778;9.166;2023-05-08T12:57:50;21.70;99.90
2913;DHT22;1466;48.778;9.166;2023-05-08T13:00:16;21.80;99.90
2913;DHT22;1466;48.778;9.166;2023-05-08T13:02:54;21.80;99.90
2913;DHT22;1466;48.778;9.166;2023-05-08T13:05:21;21.90;99.90
2913;DHT22;1466;48.778;9.166;2023-05-08T13:07:50;21.80;99.90
2913;DHT22;1466;48.778;9.166;2023-05-08T13:10:16;21.90;99.90
2913;DHT22;1466;48.778;9.166;2023-05-08T13:12:45;21.80;99.90
2913;DHT22;1466;48.778;9.166;2023-05-08T13:15:11;21.90;99.90
2913;DHT22;1466;48.778;9.166;2023-05-08T13:17:36;21.90;99.90
2913;DHT22;1466;48.778;9.166;2023-05-08T13:20:02;21.90;99.90
2913;DHT22;1466;48.778;9.166;2023-05-08T13:22:29;21.90;99.90
2913;DHT22;1466;48.778;9.166;2023-05-08T13:24:55;21.90;99.90
2913;DHT22;1466;48.778;9.166;2023-05-08T13:27:20;21.90;99.90
2913;DHT22;1466;48.778;9.166;2023-05-08T13:29:46;21.80;99.90
2913;DHT22;1466;48.778;9.166;2023-05-08T13:32:12;21.70;99.90
2913;DHT22;1466;48.778;9.166;2023-05-08T13:34:37;21.60;99.90
2913;DHT22;1466;48.778;9.166;2023-05-08T13:37:03;21.60;99.90
2913;DHT22;1466;48.778;9.166;2023-05-08T13:39:28;21.70;99.90
2913;DHT22;1466;48.778;9.166;2023-05-08T13:41:57;21.60;99.90
2913;DHT22;1466;48.778;9.166;2023-05-08T13:44:22;21.50;99.90
2913;DHT22;1466;48.778;9.166;2023-05-08T13:46:48;21.20;99.90
2913;DHT22;1466;48.778;9.166;2023-05-08T13:49:14;21.00;99.90
2913;DHT22;1466;48.778;9.166;2023-05-08T13:51:39;20.90;99.90
2913;DHT22;1466;48.778;9.166;2023-05-08T13:54:05;20.80;99.90
2913;DHT22;1466;48.778;9.166;2023-05-08T13:56:30;20.60;99.90
2913;DHT22;1466;48.778;9.166;2023-05-08T13:58:56;20.40;99.90
2913;DHT22;1466;48.778;9.166;2023-05-08T14:01:22;20.00;99.90
2913;DHT22;1466;48.778;9.166;2023-05-08T14:03:47;19.80;99.90
2913;DHT22;1466;48.778;9.166;2023-05-08T14:06:13;19.70;99.90
2913;DHT22;1466;48.778;9.166;2023-05-08T14:08:38;19.70;99.90
2913;DHT22;1466;48.778;9.166;2023-05-08T14:11:04;19.80;99.90
2913;DHT22;1466;48.778;9.166;2023-05-08T14:13:30;19.90;99.90
2913;DHT22;1466;48.778;9.166;2023-05-08T14:15:55;19.90;99.90
2913;DHT22;1466;48.778;9.166;2023-05-08T14:18:21;19.90;99.90
2913;DHT22;1466;48.778;9.166;2023-05-08T14:20:46;20.00;99.90
2913;DHT22;1466;48.778;9.166;2023-05-08T14:23:12;20.10;99.90
2913;DHT22;1466;48.778;9.166;2023-05-08T14:25:38;20.20;99.90
2913;DHT22;1466;48.778;9.166;2023-05-08T14:28:03;19.80;99.90
2913;DHT22;1466;48.778;9.166;2023-05-08T14:30:29;19.20;99.90
2913;DHT22;1466;48.778;9.166;2023-05-08T14:32:54;18.50;99.90
2913;DHT22;1466;48.778;9.166;2023-05-08T14:35:20;18.20;99.90
2913;DHT22;1466;48.778;9.166;2023-05-08T14:37:46;17.90;99.90
2913;DHT22;1466;48.778;9.166;2023-05-08T14:40:11;17.60;99.90
2913;DHT22;1466;48.778;9.166;2023-05-08T14:42:37;17.50;99.90
2913;DHT22;1466;48.778;9.166;2023-05-08T14:45:03;17.50;99.90
2913;DHT22;1466;48.778;9.166;2023-05-08T14:47:29;17.50;99.90
2913;DHT22;1466;48.778;9.166;2023-05-08T14:49:55;17.30;99.90
2913;DHT22;1466;48.778;9.166;2023-05-08T14:52:21;17.30;99.90
2913;DHT22;1466;48.778;9.166;2023-05-08T14:54:47;17.30;99.90
2913;DHT22;1466;48.778;9.166;2023-05-08T14:57:17;17.30;99.90
2913;DHT22;1466;48.778;9.166;2023-05-08T14:59:43;17.30;99.90
2913;DHT22;1466;48.778;9.166;2023-05-08T15:02:08;17.50;99.90
2913;DHT22;1466;48.778;9.166;2023-05-08T15:04:34;17.70;99.90
2913;DHT22;1466;48.778;9.166;2023-05-08T15:07:05;17.80;99.90
2913;DHT22;1466;48.778;9.166;2023-05-08T15:09:31;17.90;99.90
2913;DHT22;1466;48.778;9.166;2023-05-08T15:11:56;18.00;99.90
2913;DHT22;1466;48.778;9.166;2023-05-08T15:14:22;18.10;99.90
2913;DHT22;1466;48.778;9.166;2023-05-08T15:16:48;18.10;99.90
2913;DHT22;1466;48.778;9.166;2023-05-08T15:19:14;18.10;99.90
2913;DHT22;1466;48.778;9.166;2023-05-08T15:21:40;18.10;99.90
2913;DHT22;1466;48.778;9.166;2023-05-08T15:24:05;18.10;99.90
2913;DHT22;1466;48.778;9.166;2023-05-08T15:26:31;18.10;99.90
2913;DHT22;1466;48.778;9.166;2023-05-08T15:28:57;18.10;99.90
2913;DHT22;1466;48.778;9.166;2023-05-08T15:31:22;18.20;99.90
2913;DHT22;1466;48.778;9.166;2023-05-08T15:33:48;18.30;99.90
2913;DHT22;1466;48.778;9.166;2023-05-08T15:36:14;18.30;99.90
2913;DHT22;1466;48.778;9.166;2023-05-08T15:38:40;18.30;99.90
2913;DHT22;1466;48.778;9.166;2023-05-08T15:41:06;18.40;99.90
2913;DHT22;1466;48.778;9.166;2023-05-08T15:43:32;18.40;99.90
2913;DHT22;1466;48.778;9.166;2023-05-08T15:45:57;18.50;99.90
2913;DHT22;1466;48.778;9.166;2023-05-08T15:48:23;18.50;99.90
2913;DHT22;1466;48.778;9.166;2023-05-08T15:50:48;18.60;99.90
2913;DHT22;1466;48.778;9.166;2023-05-08T15:53:14;18.70;99.90
2913;DHT22;1466;48.778;9.166;2023-05-08T15:55:39;18.80;99.90
2913;DHT22;1466;48.778;9.166;2023-05-08T15:58:05;18.80;99.90
2913;DHT22;1466;48.778;9.166;2023-05-08T16:00:31;18.80;99.90
2913;DHT22;1466;48.778;9.166;2023-05-08T16:02:56;18.80;99.90
2913;DHT22;1466;48.778;9.166;2023-05-08T16:05:22;19.00;99.90
2913;DHT22;1466;48.778;9.166;2023-05-08T16:07:47;19.00;99.90
2913;DHT22;1466;48.778;9.166;2023-05-08T16:10:16;19.00;99.90
2913;DHT22;1466;48.778;9.166;2023-05-08T16:12:42;19.00;99.90
2913;DHT22;1466;48.778;9.166;2023-05-08T16:15:07;19.00;99.90
2913;DHT22;1466;48.778;9.166;2023-05-08T16:17:33;19.10;99.90
2913;DHT22;1466;48.778;9.166;2023-05-08T16:19:59;19.10;99.90
2913;DHT22;1466;48.778;9.166;2023-05-08T16:22:25;19.00;99.90
2913;DHT22;1466;48.778;9.166;2023-05-08T16:24:53;19.00;99.90
2913;DHT22;1466;48.778;9.166;2023-05-08T16:27:18;19.00;99.90
2913;DHT22;1466;48.778;9.166;2023-05-08T16:29:44;18.90;99.90
2913;DHT22;1466;48.778;9.166;2023-05-08T16:32:10;18.80;99.90
2913;DHT22;1466;48.778;9.166;2023-05-08T16:34:35;18.80;99.90
2913;DHT22;1466;48.778;9.166;2023-05-08T16:37:02;18.70;99.90
2913;DHT22;1466;48.778;9.166;2023-05-08T16:39:27;18.80;99.90
2913;DHT22;1466;48.778;9.166;2023-05-08T16:41:53;18.80;99.90
2913;DHT22;1466;48.778;9.166;2023-05-08T16:44:18;18.80;99.90
2913;DHT22;1466;48.778;9.166;2023-05-08T16:46:44;18.90;99.90
2913;DHT22;1466;48.778;9.166;2023-05-08T16:49:10;18.90;99.90
2913;DHT22;1466;48.778;9.166;2023-05-08T16:51:35;18.80;99.90
2913;DHT22;1466;48.778;9.166;2023-05-08T16:54:01;18.80;99.90
2913;DHT22;1466;48.778;9.166;2023-05-08T16:56:26;18.80;99.90
2913;DHT22;1466;48.778;9.166;2023-05-08T16:58:52;18.80;99.90
2913;DHT22;1466;48.778;9.166;2023-05-08T17:01:17;18.90;99.90
2913;DHT22;1466;48.778;9.166;2023-05-08T17:03:43;18.80;99.90
2913;DHT22;1466;48.778;9.166;2023-05-08T17:06:09;18.70;99.90